Chesapeake — WDD3041 — position and weather

sailwx.info

Track history (hours):
 
Tides and Currents Weather Stations Pressure Air Temp Water Temp Dewpoint Dewpoint Depression Visibility Wind Speed Wind Dir Waves Ship Positions

Chesapeake

Owner: Vane Line Bunkering, Philadelphia, PA. More information available from US FCC via Universal Licensing System and Coast Guard Vessel Documentation Center.

Last reported at 2017-May-30 02:27 UTC. Time now 2017-May-30 03:22 UTC.
Position N 40°56' W 073°55'.

Length 34 m.

Type: Tug. MMSI: 367123040.

Date/timePositionNaut miles runAvg speedWind from/ knotsBaromVisibWave heightAir tempDewpointWater temp
2017-May-30 02:27N 40°56' W 073°55'4 8.4
2017-May-30 02:01N 40°52' W 073°56'4 8.3
2017-May-30 01:31N 40°48' W 073°59'4 7.7
2017-May-30 01:01N 40°45' W 074°01'4 7.2
2017-May-30 00:31N 40°41' W 074°02'4 7.1
2017-May-30 00:01N 40°38' W 074°03'3 6.0
2017-May-29 23:30N 40°35' W 074°02'1 1.5
2017-May-29 23:00N 40°34' W 074°02'2 4.2
2017-May-29 22:30N 40°32' W 074°01'3 5.0
2017-May-29 22:00N 40°31' W 073°59'2 4.7
2017-May-29 21:29N 40°30' W 073°56'3 4.5
2017-May-29 20:53N 40°28' W 073°53'2 5.3
2017-May-29 20:30N 40°26' W 073°53'38 5.8
2017-May-29 14:00N 39°49' W 073°58'3 6.3
2017-May-29 13:30N 39°45' W 073°58'3 6.1
2017-May-29 13:01N 39°43' W 073°60'3 6.0
2017-May-29 12:30N 39°40' W 074°01'3 5.9
2017-May-29 12:00N 39°37' W 074°03'3 6.0
2017-May-29 11:30N 39°35' W 074°05'3 6.3
2017-May-29 11:00N 39°32' W 074°06'3 6.0
2017-May-29 10:30N 39°29' W 074°08'55 4.5
2017-May-28 22:17N 39°01' W 075°09'0 1.7
2017-May-28 22:00N 39°01' W 075°09'4 8.7
2017-May-28 21:30N 39°05' W 075°11'5 9.4
2017-May-28 21:00N 39°09' W 075°15'5 9.5
2017-May-28 20:30N 39°13' W 075°18'5 9.2
2017-May-28 20:00N 39°17' W 075°22'4 8.7
2017-May-28 19:30N 39°20' W 075°25'4 8.1
2017-May-28 19:00N 39°23' W 075°29'4 7.2
2017-May-28 18:30N 39°26' W 075°32'3 6.4
2017-May-28 18:00N 39°29' W 075°34'3 6.0
2017-May-28 17:30N 39°32' W 075°33'3 5.6
2017-May-28 17:00N 39°34' W 075°33'3 5.5
2017-May-28 16:30N 39°37' W 075°35'3 5.4
2017-May-28 16:00N 39°39' W 075°33'3 6.5
2017-May-28 15:30N 39°42' W 075°31'4 7.4
2017-May-28 15:00N 39°45' W 075°29'9 9.0
2017-May-28 14:00N 39°51' W 075°20'3 5.9
2017-May-28 13:30N 39°51' W 075°16'0 0.3
2017-May-28 13:00N 39°51' W 075°16'0 0.0
2017-May-28 12:30N 39°51' W 075°16'0 0.0
2017-May-28 12:01N 39°51' W 075°16'0 0.0
2017-May-28 11:31N 39°51' W 075°16'0 0.0
2017-May-28 11:01N 39°51' W 075°16'4 7.3
2017-May-28 10:31N 39°53' W 075°12'1 1.3
2017-May-28 10:00N 39°54' W 075°12'0 0.0
2017-May-28 09:30N 39°54' W 075°12'0 0.0
2017-May-28 09:01N 39°54' W 075°12'0 0.0
2017-May-28 08:30N 39°54' W 075°12'0 0.0
2017-May-28 08:00N 39°54' W 075°12'0 0.0
2017-May-28 07:30N 39°54' W 075°12'0 0.0
2017-May-28 07:00N 39°54' W 075°12'0 0.0
2017-May-28 06:30N 39°54' W 075°12'0 0.0
2017-May-28 06:01N 39°54' W 075°12'0 0.0
2017-May-28 05:30N 39°54' W 075°12'0 0.0
2017-May-28 05:00N 39°54' W 075°12'0 0.0
2017-May-28 04:31N 39°54' W 075°12'1 1.2
2017-May-28 04:01N 39°54' W 075°12'0 0.0
2017-May-28 03:31N 39°54' W 075°12'0 0.0
2017-May-28 03:00N 39°54' W 075°12'0 0.0
2017-May-28 02:31N 39°54' W 075°12'0 0.0
2017-May-28 02:01N 39°54' W 075°12'0 0.0
2017-May-28 01:31N 39°54' W 075°12'0 0.0
2017-May-28 01:00N 39°54' W 075°12'0 0.0
2017-May-28 00:30N 39°54' W 075°12'0 0.0
2017-May-28 00:00N 39°54' W 075°12'0 0.0
2017-May-27 23:31N 39°54' W 075°12'0 0.0
2017-May-27 23:01N 39°54' W 075°12'0 0.0
2017-May-27 22:30N 39°54' W 075°12'0 0.0
2017-May-27 22:00N 39°54' W 075°12'0 0.0
2017-May-27 21:30N 39°54' W 075°12'0 0.0
2017-May-27 21:01N 39°54' W 075°12'0 0.0
2017-May-27 20:30N 39°54' W 075°12'0 0.0
2017-May-27 20:00N 39°54' W 075°12'0 0.0
2017-May-27 19:30N 39°54' W 075°12'0 0.0
2017-May-27 19:01N 39°54' W 075°12'0 0.0
2017-May-27 18:30N 39°54' W 075°12'0 0.0
2017-May-27 18:00N 39°54' W 075°12'0 0.0
2017-May-27 17:30N 39°54' W 075°12'0 0.0
2017-May-27 17:00N 39°54' W 075°12'0 0.0
2017-May-27 16:30N 39°54' W 075°12'0 0.0
2017-May-27 16:00N 39°54' W 075°12'0 0.0
2017-May-27 15:30N 39°54' W 075°12'0 0.0
2017-May-27 15:01N 39°54' W 075°12'0 0.0
2017-May-27 14:30N 39°54' W 075°12'0 0.0
2017-May-27 13:30N 39°54' W 075°12'0 0.0
2017-May-27 13:00N 39°54' W 075°12'0 0.0
2017-May-27 12:30N 39°54' W 075°12'0 0.0
2017-May-27 12:00N 39°54' W 075°12'0 0.0
2017-May-27 11:30N 39°54' W 075°12'0 0.0
2017-May-27 11:00N 39°54' W 075°12'0 0.0
2017-May-27 10:30N 39°54' W 075°12'0 0.0
2017-May-27 10:00N 39°54' W 075°12'0 0.0
2017-May-27 09:31N 39°54' W 075°12'0 0.0
2017-May-27 09:00N 39°54' W 075°12'0 0.0
2017-May-27 08:30N 39°54' W 075°12'0 0.0
2017-May-27 08:00N 39°54' W 075°12'0 0.0
2017-May-27 07:31N 39°54' W 075°12'4 7.9
2017-May-27 07:00N 39°51' W 075°16'0 0.0
2017-May-27 06:31N 39°51' W 075°16'1 2.5
2017-May-27 06:00N 39°51' W 075°14'2 3.8
2017-May-27 05:30N 39°52' W 075°12'0 0.0
2017-May-27 05:01N 39°52' W 075°12'0 0.0
2017-May-27 04:30N 39°52' W 075°12'0 0.0
2017-May-27 04:00N 39°52' W 075°12'0 0.0
2017-May-27 03:30N 39°52' W 075°12'0 0.0
2017-May-27 03:00N 39°52' W 075°12'0 0.0
2017-May-27 02:31N 39°52' W 075°12'0 0.0
2017-May-27 02:00N 39°52' W 075°12'0 0.0
2017-May-27 01:30N 39°52' W 075°12'0 0.0
2017-May-27 01:01N 39°52' W 075°12'0 0.0
2017-May-27 00:30N 39°52' W 075°12'0 0.0
2017-May-27 00:00N 39°52' W 075°12'0 0.0
2017-May-26 23:30N 39°52' W 075°12'0 0.0
2017-May-26 23:01N 39°52' W 075°12'0 0.0
2017-May-26 22:30N 39°52' W 075°12'0 0.0
2017-May-26 22:00N 39°52' W 075°12'0 0.0
2017-May-26 21:30N 39°52' W 075°12'0 0.0
2017-May-26 21:00N 39°52' W 075°12'0 0.0
2017-May-26 20:31N 39°52' W 075°12'0 0.1
2017-May-26 20:00N 39°52' W 075°12'0 0.0
2017-May-26 19:30N 39°52' W 075°12'0 0.0
2017-May-26 19:00N 39°52' W 075°12'0 0.1
2017-May-26 18:30N 39°52' W 075°12'0 0.0
2017-May-26 18:00N 39°52' W 075°12'0 0.0
2017-May-26 17:31N 39°52' W 075°12'0 0.0
2017-May-26 17:00N 39°52' W 075°12'0 0.0
2017-May-26 16:30N 39°52' W 075°12'0 0.0
2017-May-26 16:00N 39°52' W 075°12'0 0.0
2017-May-26 15:30N 39°52' W 075°12'0 0.0
2017-May-26 15:00N 39°52' W 075°12'0 0.1
2017-May-26 14:31N 39°52' W 075°12'0 0.0
2017-May-26 13:30N 39°52' W 075°12'0 0.0
2017-May-26 13:00N 39°52' W 075°12'0 0.0
2017-May-26 12:31N 39°52' W 075°12'0 0.0
2017-May-26 12:00N 39°52' W 075°12'0 0.1
2017-May-26 11:30N 39°52' W 075°12'0 0.1
2017-May-26 11:00N 39°52' W 075°12'0 0.1
2017-May-26 10:31N 39°52' W 075°12'0 0.1
2017-May-26 10:00N 39°52' W 075°12'0 0.1
2017-May-26 09:31N 39°52' W 075°13'0 0.0
2017-May-26 09:00N 39°52' W 075°12'0 0.1
2017-May-26 08:31N 39°52' W 075°12'0 0.1
2017-May-26 08:00N 39°52' W 075°12'0 0.2
2017-May-26 07:31N 39°52' W 075°12'0 0.1
2017-May-26 07:01N 39°52' W 075°12'0 0.0
2017-May-26 06:31N 39°52' W 075°12'0 0.0
2017-May-26 06:00N 39°52' W 075°12'0 0.0
2017-May-26 05:31N 39°52' W 075°12'0 0.0
2017-May-26 05:01N 39°52' W 075°12'0 0.0
2017-May-26 04:30N 39°52' W 075°12'0 0.0
2017-May-26 04:01N 39°52' W 075°12'0 0.0
2017-May-26 03:31N 39°52' W 075°12'0 0.0
2017-May-26 03:00N 39°52' W 075°12'0 0.0
2017-May-26 02:30N 39°52' W 075°12'0 0.0
2017-May-26 02:00N 39°52' W 075°12'0 0.0
2017-May-26 01:31N 39°52' W 075°12'0 0.3
2017-May-26 01:00N 39°52' W 075°12'0 0.1
2017-May-26 00:30N 39°52' W 075°12'0 0.0
2017-May-26 00:01N 39°52' W 075°12'0 0.0
2017-May-25 23:31N 39°52' W 075°12'0 0.0
2017-May-25 23:01N 39°52' W 075°12'0 0.1
2017-May-25 22:30N 39°52' W 075°12'0 0.0
2017-May-25 22:00N 39°52' W 075°12'0 0.0
2017-May-25 21:30N 39°52' W 075°12'0 0.1
2017-May-25 21:01N 39°52' W 075°12'0 0.0
2017-May-25 20:31N 39°52' W 075°12'0 0.0
2017-May-25 20:01N 39°52' W 075°12'0 0.0
2017-May-25 19:30N 39°52' W 075°12'0 0.0
2017-May-25 19:00N 39°52' W 075°12'0 0.1
2017-May-25 18:31N 39°52' W 075°12'0 0.2
2017-May-25 18:01N 39°52' W 075°12'0 0.1
2017-May-25 17:30N 39°52' W 075°12'0 0.1
2017-May-25 17:00N 39°52' W 075°12'0 0.0
2017-May-25 16:30N 39°52' W 075°12'0 0.0
2017-May-25 16:01N 39°52' W 075°12'0 0.0
2017-May-25 15:31N 39°52' W 075°12'0 0.0
2017-May-25 15:00N 39°52' W 075°12'0 0.0
2017-May-25 14:31N 39°52' W 075°12'0 0.1
2017-May-25 13:30N 39°52' W 075°13'0 0.1
2017-May-25 13:00N 39°52' W 075°13'0 0.0
2017-May-25 12:31N 39°52' W 075°13'0 0.0
2017-May-25 12:01N 39°52' W 075°13'0 0.0
2017-May-25 11:30N 39°52' W 075°13'0 0.0
2017-May-25 11:00N 39°52' W 075°13'0 0.0
2017-May-25 10:31N 39°52' W 075°13'0 0.0
2017-May-25 10:00N 39°52' W 075°13'0 0.0
2017-May-25 09:30N 39°52' W 075°13'0 0.0
2017-May-25 09:01N 39°52' W 075°13'0 0.1
2017-May-25 08:31N 39°52' W 075°12'0 0.0
2017-May-25 08:01N 39°52' W 075°12'0 0.0
2017-May-25 07:30N 39°52' W 075°13'0 0.1
2017-May-25 07:01N 39°52' W 075°13'0 0.0
2017-May-25 06:31N 39°52' W 075°13'0 0.1
2017-May-25 06:01N 39°52' W 075°12'0 0.1
2017-May-25 05:30N 39°52' W 075°12'0 0.0
2017-May-25 05:01N 39°52' W 075°12'0 0.0
2017-May-25 04:31N 39°52' W 075°12'0 0.1
2017-May-25 04:00N 39°52' W 075°12'0 0.0
2017-May-25 03:30N 39°52' W 075°12'0 0.0
2017-May-25 03:00N 39°52' W 075°12'0 0.0
2017-May-25 02:31N 39°52' W 075°12'0 0.0
2017-May-25 02:00N 39°52' W 075°12'0 0.0
2017-May-25 01:31N 39°52' W 075°12'0 0.1
2017-May-25 01:01N 39°52' W 075°12'0 0.1
2017-May-25 00:30N 39°52' W 075°13'0 0.1
2017-May-25 00:00N 39°52' W 075°13'0 0.1
2017-May-24 23:30N 39°52' W 075°13'0 0.0
2017-May-24 23:00N 39°52' W 075°13'0 0.1
2017-May-24 22:31N 39°52' W 075°13'0 0.0
2017-May-24 22:00N 39°52' W 075°12'0 0.0
2017-May-24 21:31N 39°52' W 075°12'0 0.0
2017-May-24 21:01N 39°52' W 075°12'0 0.0
2017-May-24 20:30N 39°52' W 075°13'0 0.0
2017-May-24 20:00N 39°52' W 075°13'0 0.0
2017-May-24 19:31N 39°52' W 075°13'0 0.0
2017-May-24 19:00N 39°52' W 075°12'0 0.1
2017-May-24 18:30N 39°52' W 075°12'0 0.0
2017-May-24 18:00N 39°52' W 075°12'0 0.2
2017-May-24 17:30N 39°52' W 075°12'0 0.1
2017-May-24 17:00N 39°52' W 075°12'0 0.0
2017-May-24 16:30N 39°52' W 075°12'0 0.0
2017-May-24 16:00N 39°52' W 075°12'0 0.0
2017-May-24 15:30N 39°52' W 075°12'0 0.0
2017-May-24 15:00N 39°52' W 075°12'0 0.0
2017-May-24 14:31N 39°52' W 075°12'0 0.0
2017-May-24 13:30N 39°52' W 075°12'0 0.1
2017-May-24 13:01N 39°52' W 075°12'0 0.2
2017-May-24 12:30N 39°52' W 075°12'0 0.1
2017-May-24 12:01N 39°52' W 075°12'0 0.1
2017-May-24 11:30N 39°52' W 075°12'0 0.0
2017-May-24 11:00N 39°52' W 075°12'0 0.0
2017-May-24 10:30N 39°52' W 075°12'1 1.0
2017-May-24 10:00N 39°52' W 075°13'1 1.6
2017-May-24 09:31N 39°51' W 075°14'2 4.6
2017-May-24 09:00N 39°53' W 075°12'1 1.5
2017-May-24 08:30N 39°54' W 075°12'0 0.0
2017-May-24 08:00N 39°54' W 075°12'0 0.0
2017-May-24 07:30N 39°54' W 075°12'0 0.0
2017-May-24 07:00N 39°54' W 075°12'0 0.0
2017-May-24 06:30N 39°54' W 075°12'0 0.0
2017-May-24 06:00N 39°54' W 075°12'0 0.0
2017-May-24 05:30N 39°54' W 075°12'0 0.0
2017-May-24 05:01N 39°54' W 075°12'0 0.0
2017-May-24 04:31N 39°54' W 075°12'0 0.0
2017-May-24 04:01N 39°54' W 075°12'0 0.0
2017-May-24 03:31N 39°54' W 075°12'0 0.0
2017-May-24 03:00N 39°54' W 075°12'0 0.0
2017-May-24 02:30N 39°54' W 075°12'0 0.0
2017-May-24 02:01N 39°54' W 075°12'0 0.0
2017-May-24 01:31N 39°54' W 075°12'0 0.0
2017-May-24 01:01N 39°54' W 075°12'0 0.0
2017-May-24 00:31N 39°54' W 075°12'0 0.0
2017-May-24 00:01N 39°54' W 075°12'0 0.0
2017-May-23 23:30N 39°54' W 075°12'0 0.0
2017-May-23 23:01N 39°54' W 075°12'0 0.0
2017-May-23 22:30N 39°54' W 075°12'0 0.0
2017-May-23 22:00N 39°54' W 075°12'0 0.0
2017-May-23 21:30N 39°54' W 075°12'0 0.0
2017-May-23 21:00N 39°54' W 075°12'0 0.0
2017-May-23 20:30N 39°54' W 075°12'0 0.0
2017-May-23 20:01N 39°54' W 075°12'0 0.0
2017-May-23 19:30N 39°54' W 075°12'0 0.0
2017-May-23 19:00N 39°54' W 075°12'0 0.0
2017-May-23 18:31N 39°54' W 075°12'0 0.0
2017-May-23 18:00N 39°54' W 075°12'0 0.0
2017-May-23 17:30N 39°54' W 075°12'0 0.0
2017-May-23 17:00N 39°54' W 075°12'0 0.0
2017-May-23 16:30N 39°54' W 075°12'0 0.0
2017-May-23 16:00N 39°54' W 075°12'0 0.0
2017-May-23 15:30N 39°54' W 075°12'0 0.0
2017-May-23 15:00N 39°54' W 075°12'3 2.6
2017-May-23 14:00N 39°51' W 075°14'0 0.2
2017-May-23 13:31N 39°51' W 075°14'2 3.6
2017-May-23 13:00N 39°51' W 075°16'0 0.1
2017-May-23 12:31N 39°51' W 075°16'0 0.0
2017-May-23 12:01N 39°51' W 075°16'0 0.0
2017-May-23 11:31N 39°51' W 075°16'0 0.0
2017-May-23 11:00N 39°51' W 075°16'0 0.0
2017-May-23 10:30N 39°51' W 075°16'0 0.0
2017-May-23 10:00N 39°51' W 075°16'0 0.0
2017-May-23 09:31N 39°51' W 075°16'0 0.0
2017-May-23 09:00N 39°51' W 075°16'0 0.0
2017-May-23 08:30N 39°51' W 075°16'0 0.0
2017-May-23 08:01N 39°51' W 075°16'0 0.0
2017-May-23 07:30N 39°51' W 075°16'0 0.0
2017-May-23 07:01N 39°51' W 075°16'0 0.0
2017-May-23 06:30N 39°51' W 075°16'0 0.0
2017-May-23 06:00N 39°51' W 075°16'0 0.0
2017-May-23 05:31N 39°51' W 075°16'0 0.0
2017-May-23 05:00N 39°51' W 075°16'0 0.0
2017-May-23 04:31N 39°51' W 075°16'0 0.0
2017-May-23 04:00N 39°51' W 075°16'0 0.0
2017-May-23 03:30N 39°51' W 075°16'0 0.0
2017-May-23 03:01N 39°51' W 075°16'0 0.0
2017-May-23 02:31N 39°51' W 075°16'0 0.0
2017-May-23 02:01N 39°51' W 075°16'0 0.0
2017-May-23 01:31N 39°51' W 075°16'0 0.0
2017-May-23 01:01N 39°51' W 075°16'0 0.0
2017-May-23 00:30N 39°51' W 075°16'0 0.0
2017-May-23 00:00N 39°51' W 075°16'0 0.0
2017-May-22 23:30N 39°51' W 075°16'0 0.0
2017-May-22 23:00N 39°51' W 075°16'0 0.0
2017-May-22 22:30N 39°51' W 075°16'0 0.0
2017-May-22 22:00N 39°51' W 075°16'0 0.0
2017-May-22 21:30N 39°51' W 075°16'0 0.0
2017-May-22 21:00N 39°51' W 075°16'0 0.0
2017-May-22 20:30N 39°51' W 075°16'0 0.0
2017-May-22 20:00N 39°51' W 075°16'0 0.0
2017-May-22 19:30N 39°51' W 075°16'0 0.0
2017-May-22 19:01N 39°51' W 075°16'0 0.0
2017-May-22 18:30N 39°51' W 075°16'0 0.0
2017-May-22 18:00N 39°51' W 075°16'0 0.0
2017-May-22 17:31N 39°51' W 075°16'0 0.0
2017-May-22 17:00N 39°51' W 075°16'0 0.0
2017-May-22 16:30N 39°51' W 075°16'0 0.0
2017-May-22 16:01N 39°51' W 075°16'0 0.0
2017-May-22 15:31N 39°51' W 075°16'0 0.0
2017-May-22 15:00N 39°51' W 075°16'0 0.0
2017-May-22 14:01N 39°51' W 075°16'0 0.0
2017-May-22 13:31N 39°51' W 075°16'0 0.0
2017-May-22 13:01N 39°51' W 075°16'0 0.0
2017-May-22 12:31N 39°51' W 075°16'0 0.0
2017-May-22 12:01N 39°51' W 075°16'0 0.0
2017-May-22 11:31N 39°51' W 075°16'0 0.0
2017-May-22 11:01N 39°51' W 075°16'0 0.0
2017-May-22 10:31N 39°51' W 075°16'0 0.0
2017-May-22 10:01N 39°51' W 075°16'0 0.0
2017-May-22 09:31N 39°51' W 075°16'0 0.0
2017-May-22 09:01N 39°51' W 075°16'0 0.0
2017-May-22 08:31N 39°51' W 075°16'0 0.0
2017-May-22 08:00N 39°51' W 075°16'0 0.0
2017-May-22 07:31N 39°51' W 075°16'0 0.0
2017-May-22 07:01N 39°51' W 075°16'0 0.0
2017-May-22 06:31N 39°51' W 075°16'0 0.1
2017-May-22 06:00N 39°51' W 075°16'2 4.9
2017-May-22 05:31N 39°52' W 075°13'0 0.7
2017-May-22 05:01N 39°52' W 075°13'0 0.1
2017-May-22 04:31N 39°52' W 075°13'0 0.1
2017-May-22 04:01N 39°52' W 075°13'0 0.0
2017-May-22 03:30N 39°52' W 075°13'0 0.1
2017-May-22 03:01N 39°52' W 075°13'0 0.0
2017-May-22 02:31N 39°52' W 075°13'0 0.0
2017-May-22 02:01N 39°52' W 075°13'0 0.0
2017-May-22 01:31N 39°52' W 075°13'1 1.6
2017-May-22 01:01N 39°53' W 075°12'1 1.7
2017-May-22 00:31N 39°54' W 075°12'0 0.4
2017-May-22 00:01N 39°54' W 075°12'0 0.0
2017-May-21 23:31N 39°54' W 075°12'0 0.0
2017-May-21 23:01N 39°54' W 075°12'0 0.0
2017-May-21 22:31N 39°54' W 075°12'0 0.0
2017-May-21 22:01N 39°54' W 075°12'0 0.0
2017-May-21 21:31N 39°54' W 075°12'0 0.0
2017-May-21 21:00N 39°54' W 075°12'0 0.0
2017-May-21 20:31N 39°54' W 075°12'0 0.0
2017-May-21 20:01N 39°54' W 075°12'0 0.0
2017-May-21 19:31N 39°54' W 075°12'0 0.0
2017-May-21 19:01N 39°54' W 075°12'0 0.0
2017-May-21 18:30N 39°54' W 075°12'0 0.0
2017-May-21 18:00N 39°54' W 075°12'0 0.0
2017-May-21 17:31N 39°54' W 075°12'0 0.0
2017-May-21 17:01N 39°54' W 075°12'0 0.0
2017-May-21 16:31N 39°54' W 075°12'0 0.0
2017-May-21 16:01N 39°54' W 075°12'0 0.0
2017-May-21 15:30N 39°54' W 075°12'0 0.0
2017-May-21 15:00N 39°54' W 075°12'0 0.0
2017-May-21 14:31N 39°54' W 075°12'0 0.0
2017-May-21 13:30N 39°54' W 075°12'0 0.0
2017-May-21 13:01N 39°54' W 075°12'0 0.0
2017-May-21 12:31N 39°54' W 075°12'0 0.0
2017-May-21 12:01N 39°54' W 075°12'0 0.0
2017-May-21 11:30N 39°54' W 075°12'0 0.0
2017-May-21 11:00N 39°54' W 075°12'0 0.0
2017-May-21 10:31N 39°54' W 075°12'0 0.0
2017-May-21 10:01N 39°54' W 075°12'0 0.0
2017-May-21 09:30N 39°54' W 075°12'0 0.0
2017-May-21 09:01N 39°54' W 075°12'0 0.0
2017-May-21 08:31N 39°54' W 075°12'0 0.0
2017-May-21 08:01N 39°54' W 075°12'0 0.0
2017-May-21 07:31N 39°54' W 075°12'0 0.0
2017-May-21 07:01N 39°54' W 075°12'0 0.0
2017-May-21 06:30N 39°54' W 075°12'0 0.0
2017-May-21 06:01N 39°54' W 075°12'0 0.0
2017-May-21 05:31N 39°54' W 075°12'0 0.0
2017-May-21 05:00N 39°54' W 075°12'0 0.0
2017-May-21 04:22N 39°54' W 075°12'0 0.0
2017-May-21 04:00N 39°54' W 075°12'0 0.0
2017-May-21 03:31N 39°54' W 075°12'0 0.0
2017-May-21 03:01N 39°54' W 075°12'0 0.0
2017-May-21 02:30N 39°54' W 075°12'0 0.0
2017-May-21 02:01N 39°54' W 075°12'0 0.0
2017-May-21 01:31N 39°54' W 075°12'0 0.0
2017-May-21 01:01N 39°54' W 075°12'0 0.0
2017-May-21 00:31N 39°54' W 075°12'0 0.0
2017-May-21 00:00N 39°54' W 075°12'0 0.0
2017-May-20 23:31N 39°54' W 075°12'0 0.0
2017-May-20 23:01N 39°54' W 075°12'0 0.0
2017-May-20 22:31N 39°54' W 075°12'0 0.0
2017-May-20 22:01N 39°54' W 075°12'0 0.0
2017-May-20 21:31N 39°54' W 075°12'0 0.0
2017-May-20 21:01N 39°54' W 075°12'0 0.0
2017-May-20 20:31N 39°54' W 075°12'0 0.0
2017-May-20 20:01N 39°54' W 075°12'0 0.0
2017-May-20 19:31N 39°54' W 075°12'0 0.0
2017-May-20 19:01N 39°54' W 075°12'0 0.0
2017-May-20 18:31N 39°54' W 075°12'0 0.0
2017-May-20 18:00N 39°54' W 075°12'0 0.0
2017-May-20 17:31N 39°54' W 075°12'0 0.0
2017-May-20 17:01N 39°54' W 075°12'0 0.0
2017-May-20 16:31N 39°54' W 075°12'0 0.0
2017-May-20 16:01N 39°54' W 075°12'0 0.0
2017-May-20 15:30N 39°54' W 075°12'0 0.0
2017-May-20 15:01N 39°54' W 075°12'0 0.0
2017-May-20 14:00N 39°54' W 075°12'0 0.0
2017-May-20 13:31N 39°54' W 075°12'0 0.0
2017-May-20 13:00N 39°54' W 075°12'0 0.0
2017-May-20 12:31N 39°54' W 075°12'0 0.0
2017-May-20 12:01N 39°54' W 075°12'0 0.0
2017-May-20 11:31N 39°54' W 075°12'0 0.0
2017-May-20 11:01N 39°54' W 075°12'0 0.0
2017-May-20 10:31N 39°54' W 075°12'0 0.0
2017-May-20 10:01N 39°54' W 075°12'0 0.0
2017-May-20 09:31N 39°54' W 075°12'0 0.0
2017-May-20 09:01N 39°54' W 075°12'0 0.0
2017-May-20 08:31N 39°54' W 075°12'0 0.0
2017-May-20 08:01N 39°54' W 075°12'0 0.0
2017-May-20 07:31N 39°54' W 075°12'0 0.0
2017-May-20 07:01N 39°54' W 075°12'0 0.0
2017-May-20 06:31N 39°54' W 075°12'0 0.0
2017-May-20 06:00N 39°54' W 075°12'0 0.0
2017-May-20 05:31N 39°54' W 075°12'0 0.0
2017-May-20 05:01N 39°54' W 075°12'0 0.0
2017-May-20 04:30N 39°54' W 075°12'0 0.0
2017-May-20 04:01N 39°54' W 075°12'0 0.0
2017-May-20 03:31N 39°54' W 075°12'0 0.0
2017-May-20 03:01N 39°54' W 075°12'0 0.0
2017-May-20 02:31N 39°54' W 075°12'  
Track history (hours):
 
Tides and Currents Weather Stations Pressure Air Temp Water Temp Dewpoint Dewpoint Depression Visibility Wind Speed Wind Dir Waves Ship Positions

Chesapeake

Owner: Vane Line Bunkering, Philadelphia, PA. More information available from US FCC via Universal Licensing System and Coast Guard Vessel Documentation Center.

Last reported at 2017-May-30 02:27 UTC. Time now 2017-May-30 03:22 UTC.
Position N 40°56' W 073°55'.

Length 34 m.

Type: Tug. MMSI: 367123040.

Date/timePositionNaut miles runAvg speedWind from/ knotsBaromVisibWave heightAir tempDewpointWater temp
2017-May-30 02:27N 40°56' W 073°55'4 8.4
2017-May-30 02:01N 40°52' W 073°56'4 8.3
2017-May-30 01:31N 40°48' W 073°59'4 7.7
2017-May-30 01:01N 40°45' W 074°01'4 7.2
2017-May-30 00:31N 40°41' W 074°02'4 7.1
2017-May-30 00:01N 40°38' W 074°03'3 6.0
2017-May-29 23:30N 40°35' W 074°02'1 1.5
2017-May-29 23:00N 40°34' W 074°02'2 4.2
2017-May-29 22:30N 40°32' W 074°01'3 5.0
2017-May-29 22:00N 40°31' W 073°59'2 4.7
2017-May-29 21:29N 40°30' W 073°56'3 4.5
2017-May-29 20:53N 40°28' W 073°53'2 5.3
2017-May-29 20:30N 40°26' W 073°53'38 5.8
2017-May-29 14:00N 39°49' W 073°58'3 6.3
2017-May-29 13:30N 39°45' W 073°58'3 6.1
2017-May-29 13:01N 39°43' W 073°60'3 6.0
2017-May-29 12:30N 39°40' W 074°01'3 5.9
2017-May-29 12:00N 39°37' W 074°03'3 6.0
2017-May-29 11:30N 39°35' W 074°05'3 6.3
2017-May-29 11:00N 39°32' W 074°06'3 6.0
2017-May-29 10:30N 39°29' W 074°08'55 4.5
2017-May-28 22:17N 39°01' W 075°09'0 1.7
2017-May-28 22:00N 39°01' W 075°09'4 8.7
2017-May-28 21:30N 39°05' W 075°11'5 9.4
2017-May-28 21:00N 39°09' W 075°15'5 9.5
2017-May-28 20:30N 39°13' W 075°18'5 9.2
2017-May-28 20:00N 39°17' W 075°22'4 8.7
2017-May-28 19:30N 39°20' W 075°25'4 8.1
2017-May-28 19:00N 39°23' W 075°29'4 7.2
2017-May-28 18:30N 39°26' W 075°32'3 6.4
2017-May-28 18:00N 39°29' W 075°34'3 6.0
2017-May-28 17:30N 39°32' W 075°33'3 5.6
2017-May-28 17:00N 39°34' W 075°33'3 5.5
2017-May-28 16:30N 39°37' W 075°35'3 5.4
2017-May-28 16:00N 39°39' W 075°33'3 6.5
2017-May-28 15:30N 39°42' W 075°31'4 7.4
2017-May-28 15:00N 39°45' W 075°29'9 9.0
2017-May-28 14:00N 39°51' W 075°20'3 5.9
2017-May-28 13:30N 39°51' W 075°16'0 0.3
2017-May-28 13:00N 39°51' W 075°16'0 0.0
2017-May-28 12:30N 39°51' W 075°16'0 0.0
2017-May-28 12:01N 39°51' W 075°16'0 0.0
2017-May-28 11:31N 39°51' W 075°16'0 0.0
2017-May-28 11:01N 39°51' W 075°16'4 7.3
2017-May-28 10:31N 39°53' W 075°12'1 1.3
2017-May-28 10:00N 39°54' W 075°12'0 0.0
2017-May-28 09:30N 39°54' W 075°12'0 0.0
2017-May-28 09:01N 39°54' W 075°12'0 0.0
2017-May-28 08:30N 39°54' W 075°12'0 0.0
2017-May-28 08:00N 39°54' W 075°12'0 0.0
2017-May-28 07:30N 39°54' W 075°12'0 0.0
2017-May-28 07:00N 39°54' W 075°12'0 0.0
2017-May-28 06:30N 39°54' W 075°12'0 0.0
2017-May-28 06:01N 39°54' W 075°12'0 0.0
2017-May-28 05:30N 39°54' W 075°12'0 0.0
2017-May-28 05:00N 39°54' W 075°12'0 0.0
2017-May-28 04:31N 39°54' W 075°12'1 1.2
2017-May-28 04:01N 39°54' W 075°12'0 0.0
2017-May-28 03:31N 39°54' W 075°12'0 0.0
2017-May-28 03:00N 39°54' W 075°12'0 0.0
2017-May-28 02:31N 39°54' W 075°12'0 0.0
2017-May-28 02:01N 39°54' W 075°12'0 0.0
2017-May-28 01:31N 39°54' W 075°12'0 0.0
2017-May-28 01:00N 39°54' W 075°12'0 0.0
2017-May-28 00:30N 39°54' W 075°12'0 0.0
2017-May-28 00:00N 39°54' W 075°12'0 0.0
2017-May-27 23:31N 39°54' W 075°12'0 0.0
2017-May-27 23:01N 39°54' W 075°12'0 0.0
2017-May-27 22:30N 39°54' W 075°12'0 0.0
2017-May-27 22:00N 39°54' W 075°12'0 0.0
2017-May-27 21:30N 39°54' W 075°12'0 0.0
2017-May-27 21:01N 39°54' W 075°12'0 0.0
2017-May-27 20:30N 39°54' W 075°12'0 0.0
2017-May-27 20:00N 39°54' W 075°12'0 0.0
2017-May-27 19:30N 39°54' W 075°12'0 0.0
2017-May-27 19:01N 39°54' W 075°12'0 0.0
2017-May-27 18:30N 39°54' W 075°12'0 0.0
2017-May-27 18:00N 39°54' W 075°12'0 0.0
2017-May-27 17:30N 39°54' W 075°12'0 0.0
2017-May-27 17:00N 39°54' W 075°12'0 0.0
2017-May-27 16:30N 39°54' W 075°12'0 0.0
2017-May-27 16:00N 39°54' W 075°12'0 0.0
2017-May-27 15:30N 39°54' W 075°12'0 0.0
2017-May-27 15:01N 39°54' W 075°12'0 0.0
2017-May-27 14:30N 39°54' W 075°12'0 0.0
2017-May-27 13:30N 39°54' W 075°12'0 0.0
2017-May-27 13:00N 39°54' W 075°12'0 0.0
2017-May-27 12:30N 39°54' W 075°12'0 0.0
2017-May-27 12:00N 39°54' W 075°12'0 0.0
2017-May-27 11:30N 39°54' W 075°12'0 0.0
2017-May-27 11:00N 39°54' W 075°12'0 0.0
2017-May-27 10:30N 39°54' W 075°12'0 0.0
2017-May-27 10:00N 39°54' W 075°12'0 0.0
2017-May-27 09:31N 39°54' W 075°12'0 0.0
2017-May-27 09:00N 39°54' W 075°12'0 0.0
2017-May-27 08:30N 39°54' W 075°12'0 0.0
2017-May-27 08:00N 39°54' W 075°12'0 0.0
2017-May-27 07:31N 39°54' W 075°12'4 7.9
2017-May-27 07:00N 39°51' W 075°16'0 0.0
2017-May-27 06:31N 39°51' W 075°16'1 2.5
2017-May-27 06:00N 39°51' W 075°14'2 3.8
2017-May-27 05:30N 39°52' W 075°12'0 0.0
2017-May-27 05:01N 39°52' W 075°12'0 0.0
2017-May-27 04:30N 39°52' W 075°12'0 0.0
2017-May-27 04:00N 39°52' W 075°12'0 0.0
2017-May-27 03:30N 39°52' W 075°12'0 0.0
2017-May-27 03:00N 39°52' W 075°12'0 0.0
2017-May-27 02:31N 39°52' W 075°12'0 0.0
2017-May-27 02:00N 39°52' W 075°12'0 0.0
2017-May-27 01:30N 39°52' W 075°12'0 0.0
2017-May-27 01:01N 39°52' W 075°12'0 0.0
2017-May-27 00:30N 39°52' W 075°12'0 0.0
2017-May-27 00:00N 39°52' W 075°12'0 0.0
2017-May-26 23:30N 39°52' W 075°12'0 0.0
2017-May-26 23:01N 39°52' W 075°12'0 0.0
2017-May-26 22:30N 39°52' W 075°12'0 0.0
2017-May-26 22:00N 39°52' W 075°12'0 0.0
2017-May-26 21:30N 39°52' W 075°12'0 0.0
2017-May-26 21:00N 39°52' W 075°12'0 0.0
2017-May-26 20:31N 39°52' W 075°12'0 0.1
2017-May-26 20:00N 39°52' W 075°12'0 0.0
2017-May-26 19:30N 39°52' W 075°12'0 0.0
2017-May-26 19:00N 39°52' W 075°12'0 0.1
2017-May-26 18:30N 39°52' W 075°12'0 0.0
2017-May-26 18:00N 39°52' W 075°12'0 0.0
2017-May-26 17:31N 39°52' W 075°12'0 0.0
2017-May-26 17:00N 39°52' W 075°12'0 0.0
2017-May-26 16:30N 39°52' W 075°12'0 0.0
2017-May-26 16:00N 39°52' W 075°12'0 0.0
2017-May-26 15:30N 39°52' W 075°12'0 0.0
2017-May-26 15:00N 39°52' W 075°12'0 0.1
2017-May-26 14:31N 39°52' W 075°12'0 0.0
2017-May-26 13:30N 39°52' W 075°12'0 0.0
2017-May-26 13:00N 39°52' W 075°12'0 0.0
2017-May-26 12:31N 39°52' W 075°12'0 0.0
2017-May-26 12:00N 39°52' W 075°12'0 0.1
2017-May-26 11:30N 39°52' W 075°12'0 0.1
2017-May-26 11:00N 39°52' W 075°12'0 0.1
2017-May-26 10:31N 39°52' W 075°12'0 0.1
2017-May-26 10:00N 39°52' W 075°12'0 0.1
2017-May-26 09:31N 39°52' W 075°13'0 0.0
2017-May-26 09:00N 39°52' W 075°12'0 0.1
2017-May-26 08:31N 39°52' W 075°12'0 0.1
2017-May-26 08:00N 39°52' W 075°12'0 0.2
2017-May-26 07:31N 39°52' W 075°12'0 0.1
2017-May-26 07:01N 39°52' W 075°12'0 0.0
2017-May-26 06:31N 39°52' W 075°12'0 0.0
2017-May-26 06:00N 39°52' W 075°12'0 0.0
2017-May-26 05:31N 39°52' W 075°12'0 0.0
2017-May-26 05:01N 39°52' W 075°12'0 0.0
2017-May-26 04:30N 39°52' W 075°12'0 0.0
2017-May-26 04:01N 39°52' W 075°12'0 0.0
2017-May-26 03:31N 39°52' W 075°12'0 0.0
2017-May-26 03:00N 39°52' W 075°12'0 0.0
2017-May-26 02:30N 39°52' W 075°12'0 0.0
2017-May-26 02:00N 39°52' W 075°12'0 0.0
2017-May-26 01:31N 39°52' W 075°12'0 0.3
2017-May-26 01:00N 39°52' W 075°12'0 0.1
2017-May-26 00:30N 39°52' W 075°12'0 0.0
2017-May-26 00:01N 39°52' W 075°12'0 0.0
2017-May-25 23:31N 39°52' W 075°12'0 0.0
2017-May-25 23:01N 39°52' W 075°12'0 0.1
2017-May-25 22:30N 39°52' W 075°12'0 0.0
2017-May-25 22:00N 39°52' W 075°12'0 0.0
2017-May-25 21:30N 39°52' W 075°12'0 0.1
2017-May-25 21:01N 39°52' W 075°12'0 0.0
2017-May-25 20:31N 39°52' W 075°12'0 0.0
2017-May-25 20:01N 39°52' W 075°12'0 0.0
2017-May-25 19:30N 39°52' W 075°12'0 0.0
2017-May-25 19:00N 39°52' W 075°12'0 0.1
2017-May-25 18:31N 39°52' W 075°12'0 0.2
2017-May-25 18:01N 39°52' W 075°12'0 0.1
2017-May-25 17:30N 39°52' W 075°12'0 0.1
2017-May-25 17:00N 39°52' W 075°12'0 0.0
2017-May-25 16:30N 39°52' W 075°12'0 0.0
2017-May-25 16:01N 39°52' W 075°12'0 0.0
2017-May-25 15:31N 39°52' W 075°12'0 0.0
2017-May-25 15:00N 39°52' W 075°12'0 0.0
2017-May-25 14:31N 39°52' W 075°12'0 0.1
2017-May-25 13:30N 39°52' W 075°13'0 0.1
2017-May-25 13:00N 39°52' W 075°13'0 0.0
2017-May-25 12:31N 39°52' W 075°13'0 0.0
2017-May-25 12:01N 39°52' W 075°13'0 0.0
2017-May-25 11:30N 39°52' W 075°13'0 0.0
2017-May-25 11:00N 39°52' W 075°13'0 0.0
2017-May-25 10:31N 39°52' W 075°13'0 0.0
2017-May-25 10:00N 39°52' W 075°13'0 0.0
2017-May-25 09:30N 39°52' W 075°13'0 0.0
2017-May-25 09:01N 39°52' W 075°13'0 0.1
2017-May-25 08:31N 39°52' W 075°12'0 0.0
2017-May-25 08:01N 39°52' W 075°12'0 0.0
2017-May-25 07:30N 39°52' W 075°13'0 0.1
2017-May-25 07:01N 39°52' W 075°13'0 0.0
2017-May-25 06:31N 39°52' W 075°13'0 0.1
2017-May-25 06:01N 39°52' W 075°12'0 0.1
2017-May-25 05:30N 39°52' W 075°12'0 0.0
2017-May-25 05:01N 39°52' W 075°12'0 0.0
2017-May-25 04:31N 39°52' W 075°12'0 0.1
2017-May-25 04:00N 39°52' W 075°12'0 0.0
2017-May-25 03:30N 39°52' W 075°12'0 0.0
2017-May-25 03:00N 39°52' W 075°12'0 0.0
2017-May-25 02:31N 39°52' W 075°12'0 0.0
2017-May-25 02:00N 39°52' W 075°12'0 0.0
2017-May-25 01:31N 39°52' W 075°12'0 0.1
2017-May-25 01:01N 39°52' W 075°12'0 0.1
2017-May-25 00:30N 39°52' W 075°13'0 0.1
2017-May-25 00:00N 39°52' W 075°13'0 0.1
2017-May-24 23:30N 39°52' W 075°13'0 0.0
2017-May-24 23:00N 39°52' W 075°13'0 0.1
2017-May-24 22:31N 39°52' W 075°13'0 0.0
2017-May-24 22:00N 39°52' W 075°12'0 0.0
2017-May-24 21:31N 39°52' W 075°12'0 0.0
2017-May-24 21:01N 39°52' W 075°12'0 0.0
2017-May-24 20:30N 39°52' W 075°13'0 0.0
2017-May-24 20:00N 39°52' W 075°13'0 0.0
2017-May-24 19:31N 39°52' W 075°13'0 0.0
2017-May-24 19:00N 39°52' W 075°12'0 0.1
2017-May-24 18:30N 39°52' W 075°12'0 0.0
2017-May-24 18:00N 39°52' W 075°12'0 0.2
2017-May-24 17:30N 39°52' W 075°12'0 0.1
2017-May-24 17:00N 39°52' W 075°12'0 0.0
2017-May-24 16:30N 39°52' W 075°12'0 0.0
2017-May-24 16:00N 39°52' W 075°12'0 0.0
2017-May-24 15:30N 39°52' W 075°12'0 0.0
2017-May-24 15:00N 39°52' W 075°12'0 0.0
2017-May-24 14:31N 39°52' W 075°12'0 0.0
2017-May-24 13:30N 39°52' W 075°12'0 0.1
2017-May-24 13:01N 39°52' W 075°12'0 0.2
2017-May-24 12:30N 39°52' W 075°12'0 0.1
2017-May-24 12:01N 39°52' W 075°12'0 0.1
2017-May-24 11:30N 39°52' W 075°12'0 0.0
2017-May-24 11:00N 39°52' W 075°12'0 0.0
2017-May-24 10:30N 39°52' W 075°12'1 1.0
2017-May-24 10:00N 39°52' W 075°13'1 1.6
2017-May-24 09:31N 39°51' W 075°14'2 4.6
2017-May-24 09:00N 39°53' W 075°12'1 1.5
2017-May-24 08:30N 39°54' W 075°12'0 0.0
2017-May-24 08:00N 39°54' W 075°12'0 0.0
2017-May-24 07:30N 39°54' W 075°12'0 0.0
2017-May-24 07:00N 39°54' W 075°12'0 0.0
2017-May-24 06:30N 39°54' W 075°12'0 0.0
2017-May-24 06:00N 39°54' W 075°12'0 0.0
2017-May-24 05:30N 39°54' W 075°12'0 0.0
2017-May-24 05:01N 39°54' W 075°12'0 0.0
2017-May-24 04:31N 39°54' W 075°12'0 0.0
2017-May-24 04:01N 39°54' W 075°12'0 0.0
2017-May-24 03:31N 39°54' W 075°12'0 0.0
2017-May-24 03:00N 39°54' W 075°12'0 0.0
2017-May-24 02:30N 39°54' W 075°12'0 0.0
2017-May-24 02:01N 39°54' W 075°12'0 0.0
2017-May-24 01:31N 39°54' W 075°12'0 0.0
2017-May-24 01:01N 39°54' W 075°12'0 0.0
2017-May-24 00:31N 39°54' W 075°12'0 0.0
2017-May-24 00:01N 39°54' W 075°12'0 0.0
2017-May-23 23:30N 39°54' W 075°12'0 0.0
2017-May-23 23:01N 39°54' W 075°12'0 0.0
2017-May-23 22:30N 39°54' W 075°12'0 0.0
2017-May-23 22:00N 39°54' W 075°12'0 0.0
2017-May-23 21:30N 39°54' W 075°12'0 0.0
2017-May-23 21:00N 39°54' W 075°12'0 0.0
2017-May-23 20:30N 39°54' W 075°12'0 0.0
2017-May-23 20:01N 39°54' W 075°12'0 0.0
2017-May-23 19:30N 39°54' W 075°12'0 0.0
2017-May-23 19:00N 39°54' W 075°12'0 0.0
2017-May-23 18:31N 39°54' W 075°12'0 0.0
2017-May-23 18:00N 39°54' W 075°12'0 0.0
2017-May-23 17:30N 39°54' W 075°12'0 0.0
2017-May-23 17:00N 39°54' W 075°12'0 0.0
2017-May-23 16:30N 39°54' W 075°12'0 0.0
2017-May-23 16:00N 39°54' W 075°12'0 0.0
2017-May-23 15:30N 39°54' W 075°12'0 0.0
2017-May-23 15:00N 39°54' W 075°12'3 2.6
2017-May-23 14:00N 39°51' W 075°14'0 0.2
2017-May-23 13:31N 39°51' W 075°14'2 3.6
2017-May-23 13:00N 39°51' W 075°16'0 0.1
2017-May-23 12:31N 39°51' W 075°16'0 0.0
2017-May-23 12:01N 39°51' W 075°16'0 0.0
2017-May-23 11:31N 39°51' W 075°16'0 0.0
2017-May-23 11:00N 39°51' W 075°16'0 0.0
2017-May-23 10:30N 39°51' W 075°16'0 0.0
2017-May-23 10:00N 39°51' W 075°16'0 0.0
2017-May-23 09:31N 39°51' W 075°16'0 0.0
2017-May-23 09:00N 39°51' W 075°16'0 0.0
2017-May-23 08:30N 39°51' W 075°16'0 0.0
2017-May-23 08:01N 39°51' W 075°16'0 0.0
2017-May-23 07:30N 39°51' W 075°16'0 0.0
2017-May-23 07:01N 39°51' W 075°16'0 0.0
2017-May-23 06:30N 39°51' W 075°16'0 0.0
2017-May-23 06:00N 39°51' W 075°16'0 0.0
2017-May-23 05:31N 39°51' W 075°16'0 0.0
2017-May-23 05:00N 39°51' W 075°16'0 0.0
2017-May-23 04:31N 39°51' W 075°16'0 0.0
2017-May-23 04:00N 39°51' W 075°16'0 0.0
2017-May-23 03:30N 39°51' W 075°16'0 0.0
2017-May-23 03:01N 39°51' W 075°16'0 0.0
2017-May-23 02:31N 39°51' W 075°16'0 0.0
2017-May-23 02:01N 39°51' W 075°16'0 0.0
2017-May-23 01:31N 39°51' W 075°16'0 0.0
2017-May-23 01:01N 39°51' W 075°16'0 0.0
2017-May-23 00:30N 39°51' W 075°16'0 0.0
2017-May-23 00:00N 39°51' W 075°16'0 0.0
2017-May-22 23:30N 39°51' W 075°16'0 0.0
2017-May-22 23:00N 39°51' W 075°16'0 0.0
2017-May-22 22:30N 39°51' W 075°16'0 0.0
2017-May-22 22:00N 39°51' W 075°16'0 0.0
2017-May-22 21:30N 39°51' W 075°16'0 0.0
2017-May-22 21:00N 39°51' W 075°16'0 0.0
2017-May-22 20:30N 39°51' W 075°16'0 0.0
2017-May-22 20:00N 39°51' W 075°16'0 0.0
2017-May-22 19:30N 39°51' W 075°16'0 0.0
2017-May-22 19:01N 39°51' W 075°16'0 0.0
2017-May-22 18:30N 39°51' W 075°16'0 0.0
2017-May-22 18:00N 39°51' W 075°16'0 0.0
2017-May-22 17:31N 39°51' W 075°16'0 0.0
2017-May-22 17:00N 39°51' W 075°16'0 0.0
2017-May-22 16:30N 39°51' W 075°16'0 0.0
2017-May-22 16:01N 39°51' W 075°16'0 0.0
2017-May-22 15:31N 39°51' W 075°16'0 0.0
2017-May-22 15:00N 39°51' W 075°16'0 0.0
2017-May-22 14:01N 39°51' W 075°16'0 0.0
2017-May-22 13:31N 39°51' W 075°16'0 0.0
2017-May-22 13:01N 39°51' W 075°16'0 0.0
2017-May-22 12:31N 39°51' W 075°16'0 0.0
2017-May-22 12:01N 39°51' W 075°16'0 0.0
2017-May-22 11:31N 39°51' W 075°16'0 0.0
2017-May-22 11:01N 39°51' W 075°16'0 0.0
2017-May-22 10:31N 39°51' W 075°16'0 0.0
2017-May-22 10:01N 39°51' W 075°16'0 0.0
2017-May-22 09:31N 39°51' W 075°16'0 0.0
2017-May-22 09:01N 39°51' W 075°16'0 0.0
2017-May-22 08:31N 39°51' W 075°16'0 0.0
2017-May-22 08:00N 39°51' W 075°16'0 0.0
2017-May-22 07:31N 39°51' W 075°16'0 0.0
2017-May-22 07:01N 39°51' W 075°16'0 0.0
2017-May-22 06:31N 39°51' W 075°16'0 0.1
2017-May-22 06:00N 39°51' W 075°16'2 4.9
2017-May-22 05:31N 39°52' W 075°13'0 0.7
2017-May-22 05:01N 39°52' W 075°13'0 0.1
2017-May-22 04:31N 39°52' W 075°13'0 0.1
2017-May-22 04:01N 39°52' W 075°13'0 0.0
2017-May-22 03:30N 39°52' W 075°13'0 0.1
2017-May-22 03:01N 39°52' W 075°13'0 0.0
2017-May-22 02:31N 39°52' W 075°13'0 0.0
2017-May-22 02:01N 39°52' W 075°13'0 0.0
2017-May-22 01:31N 39°52' W 075°13'1 1.6
2017-May-22 01:01N 39°53' W 075°12'1 1.7
2017-May-22 00:31N 39°54' W 075°12'0 0.4
2017-May-22 00:01N 39°54' W 075°12'0 0.0
2017-May-21 23:31N 39°54' W 075°12'0 0.0
2017-May-21 23:01N 39°54' W 075°12'0 0.0
2017-May-21 22:31N 39°54' W 075°12'0 0.0
2017-May-21 22:01N 39°54' W 075°12'0 0.0
2017-May-21 21:31N 39°54' W 075°12'0 0.0
2017-May-21 21:00N 39°54' W 075°12'0 0.0
2017-May-21 20:31N 39°54' W 075°12'0 0.0
2017-May-21 20:01N 39°54' W 075°12'0 0.0
2017-May-21 19:31N 39°54' W 075°12'0 0.0
2017-May-21 19:01N 39°54' W 075°12'0 0.0
2017-May-21 18:30N 39°54' W 075°12'0 0.0
2017-May-21 18:00N 39°54' W 075°12'0 0.0
2017-May-21 17:31N 39°54' W 075°12'0 0.0
2017-May-21 17:01N 39°54' W 075°12'0 0.0
2017-May-21 16:31N 39°54' W 075°12'0 0.0
2017-May-21 16:01N 39°54' W 075°12'0 0.0
2017-May-21 15:30N 39°54' W 075°12'0 0.0
2017-May-21 15:00N 39°54' W 075°12'0 0.0
2017-May-21 14:31N 39°54' W 075°12'0 0.0
2017-May-21 13:30N 39°54' W 075°12'0 0.0
2017-May-21 13:01N 39°54' W 075°12'0 0.0
2017-May-21 12:31N 39°54' W 075°12'0 0.0
2017-May-21 12:01N 39°54' W 075°12'0 0.0
2017-May-21 11:30N 39°54' W 075°12'0 0.0
2017-May-21 11:00N 39°54' W 075°12'0 0.0
2017-May-21 10:31N 39°54' W 075°12'0 0.0
2017-May-21 10:01N 39°54' W 075°12'0 0.0
2017-May-21 09:30N 39°54' W 075°12'0 0.0
2017-May-21 09:01N 39°54' W 075°12'0 0.0
2017-May-21 08:31N 39°54' W 075°12'0 0.0
2017-May-21 08:01N 39°54' W 075°12'0 0.0
2017-May-21 07:31N 39°54' W 075°12'0 0.0
2017-May-21 07:01N 39°54' W 075°12'0 0.0
2017-May-21 06:30N 39°54' W 075°12'0 0.0
2017-May-21 06:01N 39°54' W 075°12'0 0.0
2017-May-21 05:31N 39°54' W 075°12'0 0.0
2017-May-21 05:00N 39°54' W 075°12'0 0.0
2017-May-21 04:22N 39°54' W 075°12'0 0.0
2017-May-21 04:00N 39°54' W 075°12'0 0.0
2017-May-21 03:31N 39°54' W 075°12'0 0.0
2017-May-21 03:01N 39°54' W 075°12'0 0.0
2017-May-21 02:30N 39°54' W 075°12'0 0.0
2017-May-21 02:01N 39°54' W 075°12'0 0.0
2017-May-21 01:31N 39°54' W 075°12'0 0.0
2017-May-21 01:01N 39°54' W 075°12'0 0.0
2017-May-21 00:31N 39°54' W 075°12'0 0.0
2017-May-21 00:00N 39°54' W 075°12'0 0.0
2017-May-20 23:31N 39°54' W 075°12'0 0.0
2017-May-20 23:01N 39°54' W 075°12'0 0.0
2017-May-20 22:31N 39°54' W 075°12'0 0.0
2017-May-20 22:01N 39°54' W 075°12'0 0.0
2017-May-20 21:31N 39°54' W 075°12'0 0.0
2017-May-20 21:01N 39°54' W 075°12'0 0.0
2017-May-20 20:31N 39°54' W 075°12'0 0.0
2017-May-20 20:01N 39°54' W 075°12'0 0.0
2017-May-20 19:31N 39°54' W 075°12'0 0.0
2017-May-20 19:01N 39°54' W 075°12'0 0.0
2017-May-20 18:31N 39°54' W 075°12'0 0.0
2017-May-20 18:00N 39°54' W 075°12'0 0.0
2017-May-20 17:31N 39°54' W 075°12'0 0.0
2017-May-20 17:01N 39°54' W 075°12'0 0.0
2017-May-20 16:31N 39°54' W 075°12'0 0.0
2017-May-20 16:01N 39°54' W 075°12'0 0.0
2017-May-20 15:30N 39°54' W 075°12'0 0.0
2017-May-20 15:01N 39°54' W 075°12'0 0.0
2017-May-20 14:00N 39°54' W 075°12'0 0.0
2017-May-20 13:31N 39°54' W 075°12'0 0.0
2017-May-20 13:00N 39°54' W 075°12'0 0.0
2017-May-20 12:31N 39°54' W 075°12'0 0.0
2017-May-20 12:01N 39°54' W 075°12'0 0.0
2017-May-20 11:31N 39°54' W 075°12'0 0.0
2017-May-20 11:01N 39°54' W 075°12'0 0.0
2017-May-20 10:31N 39°54' W 075°12'0 0.0
2017-May-20 10:01N 39°54' W 075°12'0 0.0
2017-May-20 09:31N 39°54' W 075°12'0 0.0
2017-May-20 09:01N 39°54' W 075°12'0 0.0
2017-May-20 08:31N 39°54' W 075°12'0 0.0
2017-May-20 08:01N 39°54' W 075°12'0 0.0
2017-May-20 07:31N 39°54' W 075°12'0 0.0
2017-May-20 07:01N 39°54' W 075°12'0 0.0
2017-May-20 06:31N 39°54' W 075°12'0 0.0
2017-May-20 06:00N 39°54' W 075°12'0 0.0
2017-May-20 05:31N 39°54' W 075°12'0 0.0
2017-May-20 05:01N 39°54' W 075°12'0 0.0
2017-May-20 04:30N 39°54' W 075°12'0 0.0
2017-May-20 04:01N 39°54' W 075°12'0 0.0
2017-May-20 03:31N 39°54' W 075°12'0 0.0
2017-May-20 03:01N 39°54' W 075°12'0 0.0
2017-May-20 02:31N 39°54' W 075°12'  

Dump ship's entire track history